METAR Data
IDs: Format: Raw Decoded Include TAF

Data at: 1001 UTC 18 Jan 2022

KARR 180952Z AUTO 20004KT 6SM BR OVC095 M07/M09 A2996 RMK AO2 SLP155 T10721094